Аэропорт: Аулие-Ата. Тараз

ICAO: UADD

METAR:
2021-04-21 19:30:00
UADD 211930Z 02003MPS 9999 OVC006 02/01 Q1027 R13/290056 NOSIG RMK QBB190 MT OBSC QFE713/0950
METAR:
2021-04-21 17:00:00
TAF UADD 211700Z 2118/2203 02005MPS 3100 BR BKN005 OVC020 TEMPO 2118/2201 0550 FG VV002